No particular awareness of the weather is required.    There are no Weather-warnings


Meteo18 Weather Cam more information Meteo18 Weather Cam


Thunder radar more information blitzortung!


Rain radar more information rain snow radar


Visit our other weather sites:

Template documentation
and downloads

And another site



Weather Underground History page Text

Daily Summary for July 24, 2017 Units:  English    Metric   Both
« Previous Day
Next Day »
Daily Weekly Monthly Yearly Custom
  High: Low: Average:
Temperature: 65.5 °F 56.5 °F 60.8 °F
Dew Point: 59.9 °F 53.1 °F 56.3 °F
Humidity: 96 % 71 % 86 %
Wind Speed: 16 mph 0 mph 5.5 mph
Wind Gust: 26 mph - -
Wind:- - West
Pressure: 30.1 in 29.9 in -
Precipitation: 0.28 in    
Historical Graphs
 
 
Tabular Data for July 24, 2017
Time Temperature Dew Point Pressure Wind Wind Speed Wind Gust Humidity Rainfall Rate (Hourly)
00:02 61.2 °F 59.2 °F 30 in SW 3 mph 7 mph 93 % 0.03 in
00:12 61.3 °F 59.4 °F 30 in SW 5 mph 7 mph 93 % 0.03 in
00:17 61.3 °F 59.4 °F 30 in WSW 3 mph 10 mph 93 % 0.03 in
00:22 61.3 °F 59.4 °F 30 in WSW 3 mph 10 mph 93 % 0.02 in
00:32 61.3 °F 59 °F 30 in SW 8 mph 11 mph 92 % 0.01 in
00:37 61.3 °F 59 °F 30 in WSW 4 mph 11 mph 92 % 0.01 in
00:42 61.5 °F 59.2 °F 30 in SW 10 mph 14 mph 92 % 0 in
00:52 61.3 °F 59.4 °F 29.9 in SW 6 mph 14 mph 93 % 0.01 in
00:57 61.3 °F 59.5 °F 29.9 in WSW 6 mph 12 mph 94 % 0.01 in
01:02 61.3 °F 59.5 °F 29.9 in SW 10 mph 12 mph 94 % 0.01 in
01:07 61.3 °F 59.5 °F 29.9 in SW 11 mph 14 mph 94 % 0.03 in
01:12 61.2 °F 59.4 °F 29.9 in SSW 8 mph 14 mph 94 % 0.03 in
01:17 61.2 °F 59.4 °F 29.9 in SW 9 mph 16 mph 94 % 0.08 in
01:22 61.2 °F 59.4 °F 29.9 in SW 7 mph 16 mph 94 % 0.08 in
01:27 61.2 °F 59.4 °F 29.9 in WSW 11 mph 17 mph 94 % 0.09 in
01:32 61.2 °F 59.4 °F 29.9 in WSW 5 mph 17 mph 94 % 0.09 in
01:42 61.3 °F 59.5 °F 29.9 in SW 10 mph 17 mph 94 % 0.13 in
01:52 61.3 °F 59.5 °F 29.9 in SW 11 mph 18 mph 94 % 0.12 in
01:57 61.3 °F 59.5 °F 29.9 in SW 8 mph 18 mph 94 % 0.12 in
02:02 61.3 °F 59.5 °F 29.9 in SW 7 mph 18 mph 94 % 0.12 in
02:12 61.2 °F 59.7 °F 29.9 in West 8 mph 16 mph 95 % 0.12 in
02:22 61.3 °F 59.9 °F 29.9 in WSW 13 mph 20 mph 95 % 0.06 in
02:32 61.3 °F 59.9 °F 29.9 in SW 4 mph 19 mph 95 % 0.04 in
02:42 59.9 °F 57.9 °F 29.9 in NNW 3 mph 26 mph 93 % 0.04 in
02:47 59.5 °F 57.6 °F 29.9 in North 2 mph 26 mph 93 % 0.05 in
02:52 59.2 °F 57.2 °F 29.9 in NNW 2 mph 26 mph 93 % 0.05 in
02:57 58.8 °F 56.8 °F 29.9 in WNW 4 mph 9 mph 93 % 0.04 in
03:02 58.6 °F 56.7 °F 29.9 in NNW 3 mph 9 mph 93 % 0.04 in
03:12 58.5 °F 56.5 °F 29.9 in West 1 mph 10 mph 93 % 0.04 in
03:17 58.3 °F 56.3 °F 29.9 in North 1 mph 8 mph 93 % 0.03 in
03:22 58.3 °F 56.5 °F 29.9 in Calm   8 mph 94 % 0.03 in
03:32 58.1 °F 56.3 °F 29.9 in Calm   4 mph 94 % 0.04 in
03:37 57.9 °F 56.1 °F 29.9 in Calm   3 mph 94 % 0.02 in
03:42 57.9 °F 56.1 °F 29.9 in Calm   3 mph 94 % 0.02 in
03:52 57.9 °F 56.1 °F 29.9 in NW 2 mph 2 mph 94 % 0.02 in
03:57 57.9 °F 56.1 °F 30 in West 3 mph 3 mph 94 % 0.02 in
04:02 57.9 °F 56.1 °F 30 in NW 1 mph 2 mph 94 % 0.02 in
04:07 57.9 °F 56.1 °F 30 in WNW 2 mph 6 mph 94 % 0.02 in
04:12 57.7 °F 55.9 °F 30 in WNW 2 mph 6 mph 94 % 0.02 in
04:17 57.6 °F 55.8 °F 30 in NW 4 mph 6 mph 94 % 0.02 in
04:22 57.6 °F 55.8 °F 30 in WNW 1 mph 6 mph 94 % 0.02 in
04:32 57.4 °F 55.6 °F 30 in West 1 mph 7 mph 94 % 0.02 in
04:37 57.2 °F 55.4 °F 30 in WNW 5 mph 6 mph 94 % 0.01 in
04:42 57.2 °F 55.4 °F 30 in West 3 mph 6 mph 94 % 0.01 in
04:47 57.2 °F 55.4 °F 29.9 in Calm   5 mph 94 % 0.01 in
04:52 57 °F 55.2 °F 29.9 in Calm   5 mph 94 % 0.01 in
04:57 57 °F 55.2 °F 29.9 in Calm   5 mph 94 % 0.01 in
05:02 56.8 °F 55.2 °F 29.9 in Calm   5 mph 94 % 0.01 in
05:12 56.7 °F 55 °F 29.9 in Calm   3 mph 94 % 0.01 in
05:22 56.5 °F 54.9 °F 30 in Calm   3 mph 94 % 0 in
05:32 56.5 °F 55 °F 30 in Calm   2 mph 95 % 0 in
05:42 56.7 °F 55.2 °F 30 in Calm   1 mph 95 % 0 in
05:47 56.7 °F 55.2 °F 30 in Calm   1 mph 95 % 0 in
05:57 56.8 °F 55.4 °F 30 in Calm   1 mph 95 % 0 in
06:02 56.8 °F 55.4 °F 30 in WSW 1 mph 1 mph 95 % 0 in
06:12 56.8 °F 55.4 °F 30 in Calm   1 mph 95 % 0 in
06:17 56.8 °F 55.4 °F 30 in Calm   1 mph 95 % 0 in
06:22 57 °F 55.6 °F 30 in Calm   1 mph 95 % 0 in
06:27 57 °F 55.6 °F 30 in Calm   1 mph 95 % 0 in
06:37 57.2 °F 55.8 °F 30 in Calm   1 mph 95 % 0 in
06:52 57.2 °F 55.8 °F 30 in Calm     95 % 0.02 in
06:57 57.2 °F 55.8 °F 30 in Calm     95 % 0.02 in
07:02 57.2 °F 55.8 °F 30 in Calm     95 % 0.04 in
07:12 57.2 °F 55.8 °F 30 in Calm     95 % 0.04 in
07:22 57 °F 55.6 °F 30 in WNW 1 mph 2 mph 95 % 0.06 in
07:32 56.7 °F 55.2 °F 30 in Calm   9 mph 95 % 0.07 in
07:42 56.8 °F 55.8 °F 30 in North 1 mph 6 mph 96 % 0.07 in
07:52 56.8 °F 55.8 °F 30 in Calm   5 mph 96 % 0.07 in
08:02 57 °F 55.9 °F 30 in NW 2 mph 3 mph 96 % 0.06 in
08:07 57.4 °F 55.9 °F 30 in WNW 3 mph 4 mph 95 % 0.05 in
08:12 57.4 °F 55.9 °F 30 in WNW 5 mph 5 mph 95 % 0.05 in
08:17 57.6 °F 56.1 °F 30 in WNW 3 mph 5 mph 95 % 0.02 in
08:22 57.4 °F 55.9 °F 30 in West 1 mph 5 mph 95 % 0.02 in
08:32 58.1 °F 56.3 °F 30 in NW 2 mph 5 mph 94 % 0.02 in
08:37 58.1 °F 56.1 °F 30 in West 4 mph 6 mph 93 % 0.01 in
08:42 58.3 °F 56.3 °F 30 in Calm   6 mph 93 % 0.01 in
08:47 58.6 °F 56.3 °F 30 in NNW 1 mph 6 mph 92 % 0 in
08:52 58.8 °F 56.5 °F 30 in North 6 mph 6 mph 92 % 0 in
09:02 59.4 °F 56.5 °F 30 in WNW 5 mph 7 mph 90 % 0 in
09:07 59.2 °F 56.3 °F 30 in Calm   11 mph 90 % 0 in
09:12 58.8 °F 55.6 °F 30 in WNW 5 mph 11 mph 89 % 0 in
09:17 58.8 °F 55.2 °F 30 in West 3 mph 8 mph 88 % 0 in
09:22 59.4 °F 55.8 °F 30 in NNW 3 mph 8 mph 88 % 0 in
09:32 59.7 °F 55.6 °F 30 in WNW 8 mph 8 mph 86 % 0 in
09:37 60.1 °F 55.2 °F 30 in NW 7 mph 10 mph 84 % 0 in
09:42 59.5 °F 54.7 °F 30 in NW 5 mph 10 mph 84 % 0 in
09:52 59.7 °F 55.6 °F 30 in North 3 mph 13 mph 86 % 0 in
10:02 60.4 °F 55.9 °F 30 in West 4 mph 11 mph 85 % 0 in
10:12 59.9 °F 55.8 °F 30 in WNW 2 mph 13 mph 86 % 0 in
10:17 60.4 °F 56.3 °F 30 in NW 8 mph 11 mph 86 % 0 in
10:22 59.9 °F 54.7 °F 30 in NW 11 mph 11 mph 83 % 0 in
10:32 60.1 °F 54.5 °F 30 in NW 2 mph 16 mph 82 % 0 in
10:37 60.6 °F 55.8 °F 30 in WNW 8 mph 13 mph 84 % 0 in
10:42 61.2 °F 55.6 °F 30 in West 5 mph 13 mph 82 % 0 in
10:52 60.8 °F 55.2 °F 30 in WSW 6 mph 10 mph 82 % 0 in
10:57 60.6 °F 55.4 °F 30 in WSW 6 mph 13 mph 83 % 0 in
11:02 61 °F 55 °F 30 in WNW 11 mph 13 mph 81 % 0 in
11:12 61.3 °F 54.9 °F 30 in WSW 5 mph 12 mph 79 % 0 in
11:22 61.2 °F 55.2 °F 30 in West 7 mph 15 mph 81 % 0 in
11:32 61 °F 54.5 °F 30 in WSW 15 mph 15 mph 79 % 0 in
11:42 60.6 °F 54.1 °F 30 in WNW 5 mph 15 mph 79 % 0 in
11:47 61 °F 53.8 °F 30 in West 10 mph 16 mph 77 % 0 in
11:52 61.2 °F 54 °F 30 in NNW 4 mph 16 mph 77 % 0 in
12:02 61.3 °F 54.5 °F 30 in WNW 7 mph 17 mph 78 % 0 in
12:07 61 °F 53.8 °F 30 in WNW 11 mph 17 mph 77 % 0 in
12:12 60.6 °F 54.1 °F 30 in WNW 12 mph 17 mph 79 % 0 in
12:17 60.1 °F 54 °F 30 in West 8 mph 15 mph 80 % 0 in
12:27 58.8 °F 53.1 °F 30 in WSW 6 mph 15 mph 81 % 0 in
12:32 59 °F 53.6 °F 30 in West 6 mph 15 mph 82 % 0 in
12:37 59.4 °F 53.6 °F 30 in SW 5 mph 15 mph 81 % 0 in
12:42 59.4 °F 53.6 °F 30 in WNW 5 mph 14 mph 81 % 0 in
12:52 59.5 °F 53.8 °F 30 in West 10 mph 14 mph 81 % 0 in
12:57 59.4 °F 53.6 °F 30 in WNW 4 mph 14 mph 81 % 0 in
13:02 59.7 °F 54.5 °F 30 in WSW 4 mph 14 mph 83 % 0 in
13:12 60.1 °F 54.3 °F 30 in West 5 mph 14 mph 81 % 0 in
13:17 60.3 °F 54.3 °F 30 in West 3 mph 12 mph 81 % 0 in
13:27 61.3 °F 54.9 °F 30 in SW 8 mph 13 mph 79 % 0 in
13:32 61.3 °F 54.5 °F 30 in SSW 5 mph 13 mph 78 % 0 in
13:37 61.5 °F 54.7 °F 30 in WSW 7 mph 13 mph 78 % 0 in
13:57 62.1 °F 55 °F 30 in WNW 4 mph 13 mph 78 % 0 in
14:02 62.2 °F 54.9 °F 30 in West 8 mph 13 mph 77 % 0 in
14:07 62.1 °F 54.7 °F 30 in WSW 7 mph 13 mph 77 % 0 in
14:12 62.2 °F 55.2 °F 30 in WSW 6 mph 13 mph 78 % 0 in
14:17 61.9 °F 54.7 °F 30 in West 16 mph 16 mph 77 % 0 in
14:22 62.1 °F 55 °F 30 in West 5 mph 14 mph 78 % 0 in
14:32 63 °F 54.9 °F 30 in West 4 mph 16 mph 75 % 0 in
14:42 63.7 °F 55.6 °F 30 in West 5 mph 13 mph 75 % 0 in
14:47 63.5 °F 55 °F 30 in WSW 9 mph 17 mph 74 % 0 in
14:57 63.9 °F 55.4 °F 30 in West 9 mph 16 mph 74 % 0 in
15:02 64.2 °F 55.4 °F 30 in WNW 7 mph 16 mph 73 % 0 in
15:12 64.2 °F 55.4 °F 30 in West 7 mph 17 mph 73 % 0 in
15:17 64.2 °F 55.4 °F 30 in WSW 6 mph 17 mph 73 % 0 in
15:22 64.2 °F 55.8 °F 30 in West 10 mph 17 mph 74 % 0 in
15:32 65.5 °F 55.8 °F 30 in West 10 mph 17 mph 71 % 0 in
15:42 64 °F 55.2 °F 30 in WSW 9 mph 17 mph 73 % 0 in
15:52 63.7 °F 55.6 °F 30 in West 5 mph 17 mph 75 % 0 in
16:02 63.9 °F 55 °F 30 in West 8 mph 16 mph 73 % 0 in
16:12 63.9 °F 55 °F 30 in West 5 mph 16 mph 73 % 0 in
16:17 63.9 °F 55.4 °F 30 in WNW 12 mph 17 mph 74 % 0 in
16:22 63.5 °F 55.4 °F 30 in WSW 10 mph 17 mph 75 % 0 in
16:32 62.6 °F 55.6 °F 30 in West 6 mph 17 mph 78 % 0 in
16:37 62.4 °F 55.8 °F 30 in WNW 9 mph 16 mph 79 % 0 in
16:42 62.1 °F 55.8 °F 30 in West 6 mph 16 mph 80 % 0 in
16:52 61.9 °F 56.3 °F 30 in West 7 mph 13 mph 82 % 0 in
16:57 62.1 °F 56.1 °F 30 in WSW 7 mph 14 mph 81 % 0 in
17:02 62.2 °F 55.9 °F 30 in West 7 mph 14 mph 80 % 0 in
17:12 63 °F 56.3 °F 30 in WSW 5 mph 14 mph 79 % 0 in
17:17 63.3 °F 55.9 °F 30 in West 7 mph 16 mph 77 % 0 in
17:22 63.7 °F 56.3 °F 30 in WSW 13 mph 16 mph 77 % 0 in
17:27 63.9 °F 56.1 °F 30 in West 7 mph 16 mph 76 % 0 in
17:32 63.9 °F 56.1 °F 30 in WNW 14 mph 16 mph 76 % 0 in
17:37 63.9 °F 56.5 °F 30 in West 9 mph 17 mph 77 % 0 in
17:42 64 °F 56.3 °F 30 in NW 11 mph 17 mph 76 % 0 in
17:47 64 °F 56.3 °F 30 in SW 6 mph 17 mph 76 % 0 in
17:52 63.9 °F 56.5 °F 30 in West 8 mph 17 mph 77 % 0 in
17:57 63.7 °F 56.3 °F 30 in West 4 mph 15 mph 77 % 0 in
18:02 63.9 °F 56.5 °F 30 in West 8 mph 15 mph 77 % 0 in
18:12 63.7 °F 56.7 °F 30 in WSW 11 mph 15 mph 78 % 0 in
18:17 63.9 °F 56.8 °F 30 in WNW 10 mph 12 mph 78 % 0 in
18:22 64 °F 57 °F 30 in WSW 10 mph 12 mph 78 % 0 in
18:27 64 °F 57.4 °F 30 in NW 2 mph 12 mph 79 % 0 in
18:32 64 °F 57.4 °F 30 in West 8 mph 16 mph 79 % 0 in
18:42 63.9 °F 57.9 °F 30 in West 6 mph 16 mph 81 % 0 in
18:47 63.7 °F 57.7 °F 30 in WSW 8 mph 16 mph 81 % 0 in
18:57 63.3 °F 57.4 °F 30 in WNW 8 mph 16 mph 81 % 0 in
19:02 63.3 °F 57.7 °F 30 in WNW 1 mph 16 mph 82 % 0 in
19:12 63.5 °F 57.6 °F 30 in WNW 4 mph 13 mph 81 % 0 in
19:17 63.5 °F 57.6 °F 30 in West 6 mph 15 mph 81 % 0 in
19:22 63.7 °F 57.7 °F 30 in WNW 11 mph 15 mph 81 % 0 in
19:27 63.7 °F 58.1 °F 30 in WNW 6 mph 17 mph 82 % 0 in
19:32 63.7 °F 58.1 °F 30 in West 7 mph 17 mph 82 % 0 in
19:42 63.7 °F 57.7 °F 30 in West 5 mph 14 mph 81 % 0 in
19:52 63.9 °F 57.9 °F 30 in WNW 4 mph 14 mph 81 % 0 in
19:57 63.7 °F 57.7 °F 30 in West 7 mph 12 mph 81 % 0 in
20:02 63.1 °F 57.6 °F 30 in WNW 7 mph 12 mph 82 % 0 in
20:12 63.5 °F 57.6 °F 30 in WNW 4 mph 16 mph 81 % 0 in
20:17 63.3 °F 57.4 °F 30 in WNW 6 mph 17 mph 81 % 0 in
20:22 63.1 °F 57.2 °F 30 in WNW 6 mph 17 mph 81 % 0 in
20:32 63 °F 57.4 °F 30 in West 4 mph 17 mph 82 % 0 in
20:37 63 °F 57.7 °F 30 in WSW 5 mph 14 mph 83 % 0 in
20:42 63 °F 57.7 °F 30 in WSW 6 mph 14 mph 83 % 0 in
20:47 63 °F 57.7 °F 30 in WSW 6 mph 13 mph 83 % 0 in
20:52 62.8 °F 57.6 °F 30 in WNW 7 mph 13 mph 83 % 0 in
20:57 62.8 °F 57.9 °F 30 in West 8 mph 15 mph 84 % 0 in
21:02 62.8 °F 57.6 °F 30 in NW 5 mph 15 mph 83 % 0 in
21:12 62.6 °F 57.7 °F 30 in West 6 mph 15 mph 84 % 0 in
21:17 62.6 °F 57.7 °F 30 in West 4 mph 14 mph 84 % 0 in
21:22 62.4 °F 57.6 °F 30 in WNW 7 mph 14 mph 84 % 0 in
21:32 62.4 °F 57.6 °F 30 in WNW 9 mph 17 mph 84 % 0 in
21:42 62.4 °F 57.6 °F 30 in WNW 13 mph 15 mph 84 % 0 in
21:47 62.4 °F 57.6 °F 30 in WNW 9 mph 17 mph 84 % 0 in
21:52 62.2 °F 57.4 °F 30 in WSW 4 mph 17 mph 84 % 0 in
21:57 62.2 °F 57.4 °F 30.1 in WNW 6 mph 16 mph 84 % 0 in
22:07 62.2 °F 57.4 °F 30.1 in WNW 6 mph 16 mph 84 % 0 in
22:12 62.2 °F 57 °F 30.1 in WNW 6 mph 16 mph 83 % 0 in
22:17 62.4 °F 57.2 °F 30.1 in West 6 mph 20 mph 83 % 0 in
22:22 62.2 °F 56.7 °F 30.1 in NW 9 mph 20 mph 82 % 0 in
22:32 62.2 °F 56.7 °F 30.1 in WSW 9 mph 18 mph 82 % 0 in
22:37 62.1 °F 56.5 °F 30.1 in WNW 6 mph 18 mph 82 % 0 in
22:42 62.1 °F 56.5 °F 30.1 in NNW 9 mph 18 mph 82 % 0 in
22:47 62.1 °F 56.5 °F 30.1 in NNE 9 mph 17 mph 82 % 0 in
22:52 62.1 °F 56.5 °F 30.1 in WNW 7 mph 17 mph 82 % 0 in
23:02 62.1 °F 56.1 °F 30.1 in NW 6 mph 15 mph 81 % 0 in
23:12 61.7 °F 56.1 °F 30.1 in NW 5 mph 15 mph 82 % 0 in
23:17 61.3 °F 56.1 °F 30.1 in West 4 mph 17 mph 83 % 0 in
23:22 61 °F 56.1 °F 30.1 in North 10 mph 17 mph 84 % 0 in
23:32 60.6 °F 56.1 °F 30.1 in WNW 4 mph 15 mph 85 % 0 in
23:42 60.6 °F 56.1 °F 30.1 in WNW 5 mph 10 mph 85 % 0 in
23:47 60.6 °F 56.1 °F 30.1 in WNW 6 mph 9 mph 85 % 0 in
23:52 60.8 °F 56.3 °F 30.1 in West 8 mph 9 mph 85 % 0 in
23:57 60.6 °F 56.5 °F 30.1 in West 10 mph 12 mph 86 % 0 in
Meteo18
Compliments of Weather Underground - 4 mb

Script developed by  Jim McMurry - jmcmurry@mwt.net Adapted for the template by  Wim van der Kuil - Leuven-Template.eu

You find our weather info also at:

European Weather Network

Weather Underground

Equipment we use:

Weather-station
Davis Vue

Weather-program
Meteohub

Weather-server
Raspberry PI 2 B+

Provider
1 and 1

Davis Vue

Meteohub

Raspberry PI 2 B+

1 and 1